sensor_id;sensor_type;location;lat;lon;timestamp;P1;durP1;ratioP1;P2;durP2;ratioP2
65033;SDS011;51601;51.356;12.458;2022-10-17T00:01:52;11.17;;;6.40;;
65033;SDS011;51601;51.356;12.458;2022-10-17T00:06:06;12.70;;;6.05;;
65033;SDS011;51601;51.356;12.458;2022-10-17T00:10:21;12.20;;;6.28;;
65033;SDS011;51601;51.356;12.458;2022-10-17T00:14:35;10.77;;;5.73;;
65033;SDS011;51601;51.356;12.458;2022-10-17T00:18:50;9.07;;;4.90;;
65033;SDS011;51601;51.356;12.458;2022-10-17T00:23:04;9.48;;;5.32;;
65033;SDS011;51601;51.356;12.458;2022-10-17T00:27:17;9.02;;;5.10;;
65033;SDS011;51601;51.356;12.458;2022-10-17T00:31:31;10.97;;;5.30;;
65033;SDS011;51601;51.356;12.458;2022-10-17T00:35:47;8.55;;;5.05;;
65033;SDS011;51601;51.356;12.458;2022-10-17T00:40:01;8.55;;;4.28;;
65033;SDS011;51601;51.356;12.458;2022-10-17T00:49:11;8.95;;;4.63;;
65033;SDS011;51601;51.356;12.458;2022-10-17T00:53:26;9.80;;;4.65;;
65033;SDS011;51601;51.356;12.458;2022-10-17T00:57:40;8.33;;;4.50;;
65033;SDS011;51601;51.356;12.458;2022-10-17T01:01:59;11.07;;;4.68;;
65033;SDS011;51601;51.356;12.458;2022-10-17T01:06:15;9.35;;;5.03;;
65033;SDS011;51601;51.356;12.458;2022-10-17T01:10:32;8.75;;;4.88;;
65033;SDS011;51601;51.356;12.458;2022-10-17T01:14:57;10.03;;;5.20;;
65033;SDS011;51601;51.356;12.458;2022-10-17T01:24:15;8.45;;;4.78;;
65033;SDS011;51601;51.356;12.458;2022-10-17T01:33:31;9.18;;;4.63;;
65033;SDS011;51601;51.356;12.458;2022-10-17T01:37:58;10.15;;;5.30;;
65033;SDS011;51601;51.356;12.458;2022-10-17T01:42:20;10.00;;;4.43;;
65033;SDS011;51601;51.356;12.458;2022-10-17T01:46:40;6.70;;;3.55;;
65033;SDS011;51601;51.356;12.458;2022-10-17T01:50:58;10.68;;;4.45;;
65033;SDS011;51601;51.356;12.458;2022-10-17T01:55:19;7.22;;;3.55;;
65033;SDS011;51601;51.356;12.458;2022-10-17T01:59:37;9.63;;;4.53;;
65033;SDS011;51601;51.356;12.458;2022-10-17T02:03:53;9.88;;;4.18;;
65033;SDS011;51601;51.356;12.458;2022-10-17T02:08:13;8.63;;;4.00;;
65033;SDS011;51601;51.356;12.458;2022-10-17T02:12:39;6.83;;;3.47;;
65033;SDS011;51601;51.356;12.458;2022-10-17T02:17:02;6.75;;;3.65;;
65033;SDS011;51601;51.356;12.458;2022-10-17T02:21:23;8.70;;;3.50;;
65033;SDS011;51601;51.356;12.458;2022-10-17T02:25:47;6.60;;;3.70;;
65033;SDS011;51601;51.356;12.458;2022-10-17T02:30:07;7.80;;;4.10;;
65033;SDS011;51601;51.356;12.458;2022-10-17T02:34:25;6.55;;;2.83;;
65033;SDS011;51601;51.356;12.458;2022-10-17T02:38:42;7.78;;;3.78;;
65033;SDS011;51601;51.356;12.458;2022-10-17T02:42:59;7.47;;;3.33;;
65033;SDS011;51601;51.356;12.458;2022-10-17T02:47:15;9.00;;;3.60;;
65033;SDS011;51601;51.356;12.458;2022-10-17T02:51:35;6.80;;;3.55;;
65033;SDS011;51601;51.356;12.458;2022-10-17T02:55:57;6.80;;;3.83;;
65033;SDS011;51601;51.356;12.458;2022-10-17T03:00:19;8.60;;;4.57;;
65033;SDS011;51601;51.356;12.458;2022-10-17T03:04:34;9.00;;;3.65;;
65033;SDS011;51601;51.356;12.458;2022-10-17T03:08:48;7.07;;;3.93;;
65033;SDS011;51601;51.356;12.458;2022-10-17T03:13:01;7.57;;;4.28;;
65033;SDS011;51601;51.356;12.458;2022-10-17T03:17:21;7.88;;;4.15;;
65033;SDS011;51601;51.356;12.458;2022-10-17T03:21:35;11.40;;;4.35;;
65033;SDS011;51601;51.356;12.458;2022-10-17T03:25:50;8.13;;;4.40;;
65033;SDS011;51601;51.356;12.458;2022-10-17T03:30:05;9.00;;;4.60;;
65033;SDS011;51601;51.356;12.458;2022-10-17T03:34:21;7.82;;;4.55;;
65033;SDS011;51601;51.356;12.458;2022-10-17T03:38:37;8.73;;;4.80;;
65033;SDS011;51601;51.356;12.458;2022-10-17T03:42:52;9.27;;;4.70;;
65033;SDS011;51601;51.356;12.458;2022-10-17T03:47:05;8.43;;;4.18;;
65033;SDS011;51601;51.356;12.458;2022-10-17T03:51:25;8.93;;;4.50;;
65033;SDS011;51601;51.356;12.458;2022-10-17T03:55:45;8.10;;;4.13;;
65033;SDS011;51601;51.356;12.458;2022-10-17T03:59:59;7.38;;;2.75;;
65033;SDS011;51601;51.356;12.458;2022-10-17T04:04:13;6.45;;;3.22;;
65033;SDS011;51601;51.356;12.458;2022-10-17T04:08:30;6.77;;;3.37;;
65033;SDS011;51601;51.356;12.458;2022-10-17T04:12:53;7.38;;;3.60;;
65033;SDS011;51601;51.356;12.458;2022-10-17T04:17:07;9.60;;;3.20;;
65033;SDS011;51601;51.356;12.458;2022-10-17T04:21:23;6.40;;;3.03;;
65033;SDS011;51601;51.356;12.458;2022-10-17T04:25:40;6.75;;;3.50;;
65033;SDS011;51601;51.356;12.458;2022-10-17T04:29:54;7.75;;;3.72;;
65033;SDS011;51601;51.356;12.458;2022-10-17T04:34:09;6.63;;;3.40;;
65033;SDS011;51601;51.356;12.458;2022-10-17T04:38:25;9.65;;;3.60;;
65033;SDS011;51601;51.356;12.458;2022-10-17T04:42:41;8.45;;;3.40;;
65033;SDS011;51601;51.356;12.458;2022-10-17T04:46:58;6.75;;;3.13;;
65033;SDS011;51601;51.356;12.458;2022-10-17T04:51:12;7.70;;;3.10;;
65033;SDS011;51601;51.356;12.458;2022-10-17T04:55:53;8.02;;;3.50;;
65033;SDS011;51601;51.356;12.458;2022-10-17T05:00:09;7.82;;;3.10;;
65033;SDS011;51601;51.356;12.458;2022-10-17T05:04:36;6.13;;;2.90;;
65033;SDS011;51601;51.356;12.458;2022-10-17T05:08:51;6.57;;;3.03;;
65033;SDS011;51601;51.356;12.458;2022-10-17T05:13:05;11.38;;;2.90;;
65033;SDS011;51601;51.356;12.458;2022-10-17T05:17:22;5.97;;;2.60;;
65033;SDS011;51601;51.356;12.458;2022-10-17T05:21:35;7.68;;;2.67;;
65033;SDS011;51601;51.356;12.458;2022-10-17T05:25:53;5.95;;;2.83;;
65033;SDS011;51601;51.356;12.458;2022-10-17T05:30:08;7.22;;;3.00;;
65033;SDS011;51601;51.356;12.458;2022-10-17T05:34:25;6.23;;;2.70;;
65033;SDS011;51601;51.356;12.458;2022-10-17T05:38:41;6.72;;;3.10;;
65033;SDS011;51601;51.356;12.458;2022-10-17T05:42:55;7.45;;;3.38;;
65033;SDS011;51601;51.356;12.458;2022-10-17T05:47:09;9.77;;;2.87;;
65033;SDS011;51601;51.356;12.458;2022-10-17T05:51:24;7.82;;;2.85;;
65033;SDS011;51601;51.356;12.458;2022-10-17T05:55:40;8.45;;;3.22;;
65033;SDS011;51601;51.356;12.458;2022-10-17T05:59:54;7.50;;;3.27;;
65033;SDS011;51601;51.356;12.458;2022-10-17T06:04:08;6.72;;;3.10;;
65033;SDS011;51601;51.356;12.458;2022-10-17T06:08:24;7.50;;;2.83;;
65033;SDS011;51601;51.356;12.458;2022-10-17T06:12:37;7.15;;;3.20;;
65033;SDS011;51601;51.356;12.458;2022-10-17T06:16:52;10.57;;;3.10;;
65033;SDS011;51601;51.356;12.458;2022-10-17T06:21:07;7.57;;;3.28;;
65033;SDS011;51601;51.356;12.458;2022-10-17T06:25:30;7.25;;;3.38;;
65033;SDS011;51601;51.356;12.458;2022-10-17T06:29:44;7.47;;;3.43;;
65033;SDS011;51601;51.356;12.458;2022-10-17T06:33:58;6.47;;;3.13;;
65033;SDS011;51601;51.356;12.458;2022-10-17T06:38:13;7.72;;;2.97;;
65033;SDS011;51601;51.356;12.458;2022-10-17T06:42:29;7.77;;;3.10;;
65033;SDS011;51601;51.356;12.458;2022-10-17T06:47:12;9.07;;;3.13;;
65033;SDS011;51601;51.356;12.458;2022-10-17T06:51:30;7.38;;;3.00;;
65033;SDS011;51601;51.356;12.458;2022-10-17T06:55:49;7.13;;;2.90;;
65033;SDS011;51601;51.356;12.458;2022-10-17T07:00:17;8.07;;;2.03;;
65033;SDS011;51601;51.356;12.458;2022-10-17T07:04:35;6.63;;;2.60;;
65033;SDS011;51601;51.356;12.458;2022-10-17T07:08:49;5.57;;;2.38;;
65033;SDS011;51601;51.356;12.458;2022-10-17T07:13:03;6.83;;;2.83;;
65033;SDS011;51601;51.356;12.458;2022-10-17T07:17:20;6.28;;;2.22;;
65033;SDS011;51601;51.356;12.458;2022-10-17T07:21:34;5.72;;;2.38;;
65033;SDS011;51601;51.356;12.458;2022-10-17T07:25:51;7.83;;;2.27;;
65033;SDS011;51601;51.356;12.458;2022-10-17T07:30:06;7.43;;;2.58;;
65033;SDS011;51601;51.356;12.458;2022-10-17T07:34:25;5.50;;;2.30;;
65033;SDS011;51601;51.356;12.458;2022-10-17T07:38:43;6.43;;;2.38;;
65033;SDS011;51601;51.356;12.458;2022-10-17T07:42:59;5.67;;;2.20;;
65033;SDS011;51601;51.356;12.458;2022-10-17T07:47:13;6.40;;;2.45;;
65033;SDS011;51601;51.356;12.458;2022-10-17T07:51:30;6.68;;;2.30;;
65033;SDS011;51601;51.356;12.458;2022-10-17T07:55:44;8.07;;;2.17;;
65033;SDS011;51601;51.356;12.458;2022-10-17T08:00:03;7.75;;;2.60;;
65033;SDS011;51601;51.356;12.458;2022-10-17T08:04:23;6.63;;;2.20;;
65033;SDS011;51601;51.356;12.458;2022-10-17T08:08:38;6.40;;;2.30;;
65033;SDS011;51601;51.356;12.458;2022-10-17T08:12:52;8.10;;;2.60;;
65033;SDS011;51601;51.356;12.458;2022-10-17T08:17:06;7.03;;;2.55;;
65033;SDS011;51601;51.356;12.458;2022-10-17T08:21:20;11.07;;;2.40;;
65033;SDS011;51601;51.356;12.458;2022-10-17T08:25:37;8.43;;;2.43;;
65033;SDS011;51601;51.356;12.458;2022-10-17T08:29:51;4.93;;;2.10;;
65033;SDS011;51601;51.356;12.458;2022-10-17T08:34:05;5.15;;;2.20;;
65033;SDS011;51601;51.356;12.458;2022-10-17T08:38:22;6.77;;;2.47;;
65033;SDS011;51601;51.356;12.458;2022-10-17T08:42:52;5.78;;;2.35;;
65033;SDS011;51601;51.356;12.458;2022-10-17T08:47:23;7.25;;;2.10;;
65033;SDS011;51601;51.356;12.458;2022-10-17T08:51:41;5.57;;;2.20;;
65033;SDS011;51601;51.356;12.458;2022-10-17T08:56:02;7.65;;;2.38;;
65033;SDS011;51601;51.356;12.458;2022-10-17T09:00:36;6.75;;;2.40;;
65033;SDS011;51601;51.356;12.458;2022-10-17T09:04:56;7.35;;;2.08;;
65033;SDS011;51601;51.356;12.458;2022-10-17T09:09:33;7.30;;;2.20;;
65033;SDS011;51601;51.356;12.458;2022-10-17T09:13:57;6.15;;;2.35;;
65033;SDS011;51601;51.356;12.458;2022-10-17T09:18:23;7.50;;;2.40;;
65033;SDS011;51601;51.356;12.458;2022-10-17T09:22:41;6.97;;;2.40;;
65033;SDS011;51601;51.356;12.458;2022-10-17T09:26:59;5.57;;;2.20;;
65033;SDS011;51601;51.356;12.458;2022-10-17T09:31:17;7.60;;;2.40;;
65033;SDS011;51601;51.356;12.458;2022-10-17T09:35:36;11.57;;;2.77;;
65033;SDS011;51601;51.356;12.458;2022-10-17T09:39:52;7.93;;;2.33;;
65033;SDS011;51601;51.356;12.458;2022-10-17T09:44:14;9.70;;;2.60;;
65033;SDS011;51601;51.356;12.458;2022-10-17T09:48:31;7.88;;;2.65;;
65033;SDS011;51601;51.356;12.458;2022-10-17T09:52:50;8.33;;;2.80;;
65033;SDS011;51601;51.356;12.458;2022-10-17T09:57:07;7.18;;;3.13;;
65033;SDS011;51601;51.356;12.458;2022-10-17T10:01:23;6.93;;;2.55;;
65033;SDS011;51601;51.356;12.458;2022-10-17T10:05:39;7.37;;;2.67;;
65033;SDS011;51601;51.356;12.458;2022-10-17T10:09:55;5.30;;;2.30;;
65033;SDS011;51601;51.356;12.458;2022-10-17T10:14:10;9.50;;;3.00;;
65033;SDS011;51601;51.356;12.458;2022-10-17T10:18:29;8.57;;;2.53;;
65033;SDS011;51601;51.356;12.458;2022-10-17T10:22:45;7.57;;;2.35;;
65033;SDS011;51601;51.356;12.458;2022-10-17T10:27:19;6.57;;;2.40;;
65033;SDS011;51601;51.356;12.458;2022-10-17T10:31:34;9.52;;;2.50;;
65033;SDS011;51601;51.356;12.458;2022-10-17T10:35:54;4.37;;;1.90;;
65033;SDS011;51601;51.356;12.458;2022-10-17T10:40:14;5.90;;;2.10;;
65033;SDS011;51601;51.356;12.458;2022-10-17T10:44:31;5.88;;;2.55;;
65033;SDS011;51601;51.356;12.458;2022-10-17T10:48:49;6.47;;;2.13;;
65033;SDS011;51601;51.356;12.458;2022-10-17T10:53:26;7.43;;;2.20;;
65033;SDS011;51601;51.356;12.458;2022-10-17T10:57:46;5.85;;;1.90;;
65033;SDS011;51601;51.356;12.458;2022-10-17T11:02:10;5.07;;;1.90;;
65033;SDS011;51601;51.356;12.458;2022-10-17T11:06:32;6.35;;;2.10;;
65033;SDS011;51601;51.356;12.458;2022-10-17T11:10:55;6.25;;;2.10;;
65033;SDS011;51601;51.356;12.458;2022-10-17T11:15:17;7.65;;;2.28;;
65033;SDS011;51601;51.356;12.458;2022-10-17T11:19:40;5.47;;;2.00;;
65033;SDS011;51601;51.356;12.458;2022-10-17T11:24:05;6.97;;;2.10;;
65033;SDS011;51601;51.356;12.458;2022-10-17T11:28:24;6.70;;;1.90;;
65033;SDS011;51601;51.356;12.458;2022-10-17T11:32:39;5.40;;;2.30;;
65033;SDS011;51601;51.356;12.458;2022-10-17T11:36:58;4.78;;;2.00;;
65033;SDS011;51601;51.356;12.458;2022-10-17T11:41:18;5.18;;;2.10;;
65033;SDS011;51601;51.356;12.458;2022-10-17T11:45:38;7.93;;;2.40;;
65033;SDS011;51601;51.356;12.458;2022-10-17T11:49:56;5.45;;;2.38;;
65033;SDS011;51601;51.356;12.458;2022-10-17T11:54:37;9.70;;;2.50;;
65033;SDS011;51601;51.356;12.458;2022-10-17T11:58:56;7.65;;;2.50;;
65033;SDS011;51601;51.356;12.458;2022-10-17T12:03:34;6.60;;;2.43;;
65033;SDS011;51601;51.356;12.458;2022-10-17T12:08:04;6.40;;;2.25;;
65033;SDS011;51601;51.356;12.458;2022-10-17T12:12:27;7.03;;;2.30;;
65033;SDS011;51601;51.356;12.458;2022-10-17T12:16:44;7.43;;;2.57;;
65033;SDS011;51601;51.356;12.458;2022-10-17T12:20:59;8.05;;;2.05;;
65033;SDS011;51601;51.356;12.458;2022-10-17T12:25:15;7.50;;;2.45;;
65033;SDS011;51601;51.356;12.458;2022-10-17T12:29:33;7.20;;;2.23;;
65033;SDS011;51601;51.356;12.458;2022-10-17T12:33:47;5.63;;;2.00;;
65033;SDS011;51601;51.356;12.458;2022-10-17T12:42:48;9.65;;;2.17;;
65033;SDS011;51601;51.356;12.458;2022-10-17T12:52:03;8.80;;;2.10;;
65033;SDS011;51601;51.356;12.458;2022-10-17T12:56:40;6.18;;;2.30;;
65033;SDS011;51601;51.356;12.458;2022-10-17T13:00:56;8.83;;;2.23;;
65033;SDS011;51601;51.356;12.458;2022-10-17T13:05:34;6.75;;;2.05;;
65033;SDS011;51601;51.356;12.458;2022-10-17T13:09:49;6.75;;;2.08;;
65033;SDS011;51601;51.356;12.458;2022-10-17T13:14:08;6.50;;;2.50;;
65033;SDS011;51601;51.356;12.458;2022-10-17T13:18:26;5.72;;;2.30;;
65033;SDS011;51601;51.356;12.458;2022-10-17T13:22:44;5.75;;;2.22;;
65033;SDS011;51601;51.356;12.458;2022-10-17T13:26:58;6.70;;;2.25;;
65033;SDS011;51601;51.356;12.458;2022-10-17T13:31:25;7.13;;;2.17;;
65033;SDS011;51601;51.356;12.458;2022-10-17T13:35:41;6.60;;;2.08;;
65033;SDS011;51601;51.356;12.458;2022-10-17T13:40:17;6.82;;;2.30;;
65033;SDS011;51601;51.356;12.458;2022-10-17T13:44:52;5.37;;;2.10;;
65033;SDS011;51601;51.356;12.458;2022-10-17T13:49:10;8.85;;;2.45;;
65033;SDS011;51601;51.356;12.458;2022-10-17T13:53:29;6.35;;;2.13;;
65033;SDS011;51601;51.356;12.458;2022-10-17T13:57:46;7.47;;;2.30;;
65033;SDS011;51601;51.356;12.458;2022-10-17T14:02:00;6.35;;;2.40;;
65033;SDS011;51601;51.356;12.458;2022-10-17T14:06:15;7.45;;;2.38;;
65033;SDS011;51601;51.356;12.458;2022-10-17T14:10:32;8.32;;;2.28;;
65033;SDS011;51601;51.356;12.458;2022-10-17T14:14:51;5.50;;;2.23;;
65033;SDS011;51601;51.356;12.458;2022-10-17T14:19:23;8.10;;;2.10;;
65033;SDS011;51601;51.356;12.458;2022-10-17T14:23:40;7.80;;;2.20;;
65033;SDS011;51601;51.356;12.458;2022-10-17T14:27:56;5.67;;;2.10;;
65033;SDS011;51601;51.356;12.458;2022-10-17T14:32:20;7.18;;;2.15;;
65033;SDS011;51601;51.356;12.458;2022-10-17T14:36:35;7.28;;;2.40;;
65033;SDS011;51601;51.356;12.458;2022-10-17T14:40:54;13.27;;;3.07;;
65033;SDS011;51601;51.356;12.458;2022-10-17T14:45:32;7.35;;;2.25;;
65033;SDS011;51601;51.356;12.458;2022-10-17T14:50:05;5.70;;;2.30;;
65033;SDS011;51601;51.356;12.458;2022-10-17T14:54:21;6.22;;;2.30;;
65033;SDS011;51601;51.356;12.458;2022-10-17T14:58:37;7.60;;;2.50;;
65033;SDS011;51601;51.356;12.458;2022-10-17T15:02:52;6.15;;;2.30;;
65033;SDS011;51601;51.356;12.458;2022-10-17T15:07:10;8.30;;;2.40;;
65033;SDS011;51601;51.356;12.458;2022-10-17T15:11:26;8.27;;;2.50;;
65033;SDS011;51601;51.356;12.458;2022-10-17T15:15:40;7.00;;;2.30;;
65033;SDS011;51601;51.356;12.458;2022-10-17T15:19:55;6.90;;;2.35;;
65033;SDS011;51601;51.356;12.458;2022-10-17T15:24:11;6.83;;;2.60;;
65033;SDS011;51601;51.356;12.458;2022-10-17T15:28:25;11.18;;;2.70;;
65033;SDS011;51601;51.356;12.458;2022-10-17T15:32:39;9.60;;;3.22;;
65033;SDS011;51601;51.356;12.458;2022-10-17T15:36:53;8.88;;;2.95;;
65033;SDS011;51601;51.356;12.458;2022-10-17T15:41:09;8.07;;;2.93;;
65033;SDS011;51601;51.356;12.458;2022-10-17T15:45:23;7.03;;;2.60;;
65033;SDS011;51601;51.356;12.458;2022-10-17T15:49:37;8.20;;;2.60;;
65033;SDS011;51601;51.356;12.458;2022-10-17T15:53:51;7.67;;;2.90;;
65033;SDS011;51601;51.356;12.458;2022-10-17T15:58:08;8.40;;;2.70;;
65033;SDS011;51601;51.356;12.458;2022-10-17T16:02:24;8.70;;;2.60;;
65033;SDS011;51601;51.356;12.458;2022-10-17T16:06:38;7.53;;;2.70;;
65033;SDS011;51601;51.356;12.458;2022-10-17T16:10:52;8.45;;;3.17;;
65033;SDS011;51601;51.356;12.458;2022-10-17T16:15:08;9.20;;;3.55;;
65033;SDS011;51601;51.356;12.458;2022-10-17T16:19:26;11.27;;;4.40;;
65033;SDS011;51601;51.356;12.458;2022-10-17T16:23:41;9.13;;;3.60;;
65033;SDS011;51601;51.356;12.458;2022-10-17T16:27:57;8.27;;;3.13;;
65033;SDS011;51601;51.356;12.458;2022-10-17T16:32:13;8.05;;;2.90;;
65033;SDS011;51601;51.356;12.458;2022-10-17T16:36:27;8.20;;;3.37;;
65033;SDS011;51601;51.356;12.458;2022-10-17T16:40:40;8.82;;;3.50;;
65033;SDS011;51601;51.356;12.458;2022-10-17T16:44:54;10.02;;;3.08;;
65033;SDS011;51601;51.356;12.458;2022-10-17T16:49:09;10.47;;;3.30;;
65033;SDS011;51601;51.356;12.458;2022-10-17T16:53:23;8.32;;;3.17;;
65033;SDS011;51601;51.356;12.458;2022-10-17T16:57:37;11.55;;;3.83;;
65033;SDS011;51601;51.356;12.458;2022-10-17T17:01:51;11.02;;;3.70;;
65033;SDS011;51601;51.356;12.458;2022-10-17T17:06:07;10.30;;;3.70;;
65033;SDS011;51601;51.356;12.458;2022-10-17T17:10:23;8.30;;;3.50;;
65033;SDS011;51601;51.356;12.458;2022-10-17T17:14:37;9.02;;;3.97;;
65033;SDS011;51601;51.356;12.458;2022-10-17T17:18:52;9.90;;;4.63;;
65033;SDS011;51601;51.356;12.458;2022-10-17T17:23:08;9.55;;;3.80;;
65033;SDS011;51601;51.356;12.458;2022-10-17T17:27:27;9.80;;;4.00;;
65033;SDS011;51601;51.356;12.458;2022-10-17T17:31:41;13.33;;;4.40;;
65033;SDS011;51601;51.356;12.458;2022-10-17T17:35:55;11.70;;;4.35;;
65033;SDS011;51601;51.356;12.458;2022-10-17T17:40:10;10.02;;;4.80;;
65033;SDS011;51601;51.356;12.458;2022-10-17T17:44:24;10.38;;;5.10;;
65033;SDS011;51601;51.356;12.458;2022-10-17T17:48:38;9.40;;;4.80;;
65033;SDS011;51601;51.356;12.458;2022-10-17T17:52:53;12.60;;;4.80;;
65033;SDS011;51601;51.356;12.458;2022-10-17T17:57:08;10.95;;;5.10;;
65033;SDS011;51601;51.356;12.458;2022-10-17T18:01:22;13.23;;;5.63;;
65033;SDS011;51601;51.356;12.458;2022-10-17T18:05:38;14.60;;;6.75;;
65033;SDS011;51601;51.356;12.458;2022-10-17T18:09:52;12.98;;;6.43;;
65033;SDS011;51601;51.356;12.458;2022-10-17T18:14:10;14.40;;;5.90;;
65033;SDS011;51601;51.356;12.458;2022-10-17T18:18:25;13.20;;;6.97;;
65033;SDS011;51601;51.356;12.458;2022-10-17T18:22:39;13.82;;;6.70;;
65033;SDS011;51601;51.356;12.458;2022-10-17T18:26:53;17.45;;;8.23;;
65033;SDS011;51601;51.356;12.458;2022-10-17T18:31:12;15.87;;;7.27;;
65033;SDS011;51601;51.356;12.458;2022-10-17T18:35:30;13.13;;;6.10;;
65033;SDS011;51601;51.356;12.458;2022-10-17T18:39:43;11.80;;;6.70;;
65033;SDS011;51601;51.356;12.458;2022-10-17T18:43:59;15.43;;;7.00;;
65033;SDS011;51601;51.356;12.458;2022-10-17T18:48:15;13.77;;;5.72;;
65033;SDS011;51601;51.356;12.458;2022-10-17T18:52:29;14.85;;;6.72;;
65033;SDS011;51601;51.356;12.458;2022-10-17T18:56:42;13.77;;;7.50;;
65033;SDS011;51601;51.356;12.458;2022-10-17T19:01:00;12.90;;;7.40;;
65033;SDS011;51601;51.356;12.458;2022-10-17T19:05:16;15.38;;;8.20;;
65033;SDS011;51601;51.356;12.458;2022-10-17T19:09:30;14.88;;;7.85;;
65033;SDS011;51601;51.356;12.458;2022-10-17T19:13:44;14.30;;;6.73;;
65033;SDS011;51601;51.356;12.458;2022-10-17T19:17:59;12.27;;;6.53;;
65033;SDS011;51601;51.356;12.458;2022-10-17T19:22:14;13.85;;;6.75;;
65033;SDS011;51601;51.356;12.458;2022-10-17T19:26:28;15.43;;;8.40;;
65033;SDS011;51601;51.356;12.458;2022-10-17T19:30:43;11.18;;;5.90;;
65033;SDS011;51601;51.356;12.458;2022-10-17T19:34:57;14.30;;;6.57;;
65033;SDS011;51601;51.356;12.458;2022-10-17T19:39:13;10.77;;;5.20;;
65033;SDS011;51601;51.356;12.458;2022-10-17T19:43:29;12.38;;;6.05;;
65033;SDS011;51601;51.356;12.458;2022-10-17T19:47:43;13.45;;;6.05;;
65033;SDS011;51601;51.356;12.458;2022-10-17T19:51:57;11.05;;;5.20;;
65033;SDS011;51601;51.356;12.458;2022-10-17T19:56:12;10.27;;;5.20;;
65033;SDS011;51601;51.356;12.458;2022-10-17T20:00:29;13.48;;;7.22;;
65033;SDS011;51601;51.356;12.458;2022-10-17T20:04:43;10.45;;;5.75;;
65033;SDS011;51601;51.356;12.458;2022-10-17T20:09:16;10.83;;;5.70;;
65033;SDS011;51601;51.356;12.458;2022-10-17T20:13:33;10.23;;;5.38;;
65033;SDS011;51601;51.356;12.458;2022-10-17T20:17:48;10.32;;;5.40;;
65033;SDS011;51601;51.356;12.458;2022-10-17T20:22:01;28.90;;;14.40;;
65033;SDS011;51601;51.356;12.458;2022-10-17T20:26:16;13.05;;;6.35;;
65033;SDS011;51601;51.356;12.458;2022-10-17T20:30:50;12.00;;;5.93;;
65033;SDS011;51601;51.356;12.458;2022-10-17T20:35:04;10.90;;;6.05;;
65033;SDS011;51601;51.356;12.458;2022-10-17T20:39:19;13.77;;;6.53;;
65033;SDS011;51601;51.356;12.458;2022-10-17T20:43:33;15.68;;;6.50;;
65033;SDS011;51601;51.356;12.458;2022-10-17T20:47:49;16.33;;;5.85;;
65033;SDS011;51601;51.356;12.458;2022-10-17T20:52:05;11.37;;;5.83;;
65033;SDS011;51601;51.356;12.458;2022-10-17T20:56:19;12.75;;;5.18;;
65033;SDS011;51601;51.356;12.458;2022-10-17T21:00:36;10.30;;;5.15;;
65033;SDS011;51601;51.356;12.458;2022-10-17T21:04:52;12.80;;;5.77;;
65033;SDS011;51601;51.356;12.458;2022-10-17T21:09:06;11.93;;;6.25;;
65033;SDS011;51601;51.356;12.458;2022-10-17T21:13:20;10.30;;;5.40;;
65033;SDS011;51601;51.356;12.458;2022-10-17T21:17:33;12.27;;;5.53;;
65033;SDS011;51601;51.356;12.458;2022-10-17T21:21:48;11.27;;;4.73;;
65033;SDS011;51601;51.356;12.458;2022-10-17T21:26:02;10.57;;;4.38;;
65033;SDS011;51601;51.356;12.458;2022-10-17T21:30:18;9.77;;;4.07;;
65033;SDS011;51601;51.356;12.458;2022-10-17T21:34:32;9.37;;;4.57;;
65033;SDS011;51601;51.356;12.458;2022-10-17T21:38:48;9.20;;;4.20;;
65033;SDS011;51601;51.356;12.458;2022-10-17T21:43:03;8.52;;;4.30;;
65033;SDS011;51601;51.356;12.458;2022-10-17T21:47:16;10.00;;;4.57;;
65033;SDS011;51601;51.356;12.458;2022-10-17T21:51:33;11.25;;;4.68;;
65033;SDS011;51601;51.356;12.458;2022-10-17T21:55:48;8.82;;;4.75;;
65033;SDS011;51601;51.356;12.458;2022-10-17T22:00:02;9.15;;;4.40;;
65033;SDS011;51601;51.356;12.458;2022-10-17T22:04:23;10.03;;;4.80;;
65033;SDS011;51601;51.356;12.458;2022-10-17T22:08:37;8.73;;;4.50;;
65033;SDS011;51601;51.356;12.458;2022-10-17T22:12:52;9.57;;;4.72;;
65033;SDS011;51601;51.356;12.458;2022-10-17T22:17:06;10.47;;;5.00;;
65033;SDS011;51601;51.356;12.458;2022-10-17T22:21:20;10.15;;;4.72;;
65033;SDS011;51601;51.356;12.458;2022-10-17T22:25:34;10.35;;;4.57;;
65033;SDS011;51601;51.356;12.458;2022-10-17T22:29:49;10.83;;;4.73;;
65033;SDS011;51601;51.356;12.458;2022-10-17T22:34:03;13.70;;;4.65;;
65033;SDS011;51601;51.356;12.458;2022-10-17T22:38:18;10.18;;;4.97;;
65033;SDS011;51601;51.356;12.458;2022-10-17T22:42:32;10.77;;;5.03;;
65033;SDS011;51601;51.356;12.458;2022-10-17T22:46:47;9.57;;;5.23;;
65033;SDS011;51601;51.356;12.458;2022-10-17T22:51:01;10.30;;;5.18;;
65033;SDS011;51601;51.356;12.458;2022-10-17T22:55:15;8.95;;;4.88;;
65033;SDS011;51601;51.356;12.458;2022-10-17T22:59:29;12.27;;;5.43;;
65033;SDS011;51601;51.356;12.458;2022-10-17T23:03:44;9.65;;;5.63;;
65033;SDS011;51601;51.356;12.458;2022-10-17T23:07:58;10.93;;;5.45;;
65033;SDS011;51601;51.356;12.458;2022-10-17T23:12:12;10.57;;;5.20;;
65033;SDS011;51601;51.356;12.458;2022-10-17T23:16:26;12.23;;;4.80;;
65033;SDS011;51601;51.356;12.458;2022-10-17T23:20:41;10.40;;;5.25;;
65033;SDS011;51601;51.356;12.458;2022-10-17T23:24:54;9.48;;;4.78;;
65033;SDS011;51601;51.356;12.458;2022-10-17T23:29:08;15.90;;;5.37;;
65033;SDS011;51601;51.356;12.458;2022-10-17T23:33:22;11.68;;;5.55;;
65033;SDS011;51601;51.356;12.458;2022-10-17T23:37:37;10.55;;;4.97;;
65033;SDS011;51601;51.356;12.458;2022-10-17T23:41:50;11.40;;;5.13;;
65033;SDS011;51601;51.356;12.458;2022-10-17T23:46:04;10.40;;;5.18;;
65033;SDS011;51601;51.356;12.458;2022-10-17T23:50:18;11.55;;;5.20;;
65033;SDS011;51601;51.356;12.458;2022-10-17T23:54:34;12.37;;;5.30;;
65033;SDS011;51601;51.356;12.458;2022-10-17T23:58:47;11.27;;;5.32;;
